sensor_id;sensor_type;location;lat;lon;timestamp;temperature;humidity
25951;DHT22;13748;52.240;6.002;2023-08-07T00:01:33;14.70;99.90
25951;DHT22;13748;52.240;6.002;2023-08-07T00:04:02;14.70;99.90
25951;DHT22;13748;52.240;6.002;2023-08-07T00:06:32;14.60;99.90
25951;DHT22;13748;52.240;6.002;2023-08-07T00:09:04;14.70;99.90
25951;DHT22;13748;52.240;6.002;2023-08-07T00:11:32;14.70;99.90
25951;DHT22;13748;52.240;6.002;2023-08-07T00:13:59;14.70;99.90
25951;DHT22;13748;52.240;6.002;2023-08-07T00:16:27;14.70;99.90
25951;DHT22;13748;52.240;6.002;2023-08-07T00:18:54;14.60;99.90
25951;DHT22;13748;52.240;6.002;2023-08-07T00:21:27;14.60;99.90
25951;DHT22;13748;52.240;6.002;2023-08-07T00:23:58;14.60;99.90
25951;DHT22;13748;52.240;6.002;2023-08-07T00:26:25;14.60;99.90
25951;DHT22;13748;52.240;6.002;2023-08-07T00:28:55;14.60;99.90
25951;DHT22;13748;52.240;6.002;2023-08-07T00:31:24;14.60;99.90
25951;DHT22;13748;52.240;6.002;2023-08-07T00:33:52;14.70;99.90
25951;DHT22;13748;52.240;6.002;2023-08-07T00:36:28;14.70;99.90
25951;DHT22;13748;52.240;6.002;2023-08-07T00:38:58;14.70;99.90
25951;DHT22;13748;52.240;6.002;2023-08-07T00:41:27;14.80;99.90
25951;DHT22;13748;52.240;6.002;2023-08-07T00:43:54;14.70;99.90
25951;DHT22;13748;52.240;6.002;2023-08-07T00:46:20;14.70;99.90
25951;DHT22;13748;52.240;6.002;2023-08-07T00:48:48;14.80;99.90
25951;DHT22;13748;52.240;6.002;2023-08-07T00:51:15;14.80;99.90
25951;DHT22;13748;52.240;6.002;2023-08-07T00:53:43;14.70;99.90
25951;DHT22;13748;52.240;6.002;2023-08-07T00:56:10;14.70;99.90
25951;DHT22;13748;52.240;6.002;2023-08-07T00:58:37;14.70;99.90
25951;DHT22;13748;52.240;6.002;2023-08-07T01:01:05;14.70;99.90
25951;DHT22;13748;52.240;6.002;2023-08-07T01:03:33;14.70;99.90
25951;DHT22;13748;52.240;6.002;2023-08-07T01:06:00;14.60;99.90
25951;DHT22;13748;52.240;6.002;2023-08-07T01:08:28;14.60;99.90
25951;DHT22;13748;52.240;6.002;2023-08-07T01:16:12;14.60;99.90
25951;DHT22;13748;52.240;6.002;2023-08-07T01:18:40;14.40;99.90
25951;DHT22;13748;52.240;6.002;2023-08-07T01:21:17;14.40;99.90
25951;DHT22;13748;52.240;6.002;2023-08-07T01:23:47;14.40;99.90
25951;DHT22;13748;52.240;6.002;2023-08-07T01:26:15;14.30;99.90
25951;DHT22;13748;52.240;6.002;2023-08-07T01:28:49;14.40;99.90
25951;DHT22;13748;52.240;6.002;2023-08-07T01:31:20;14.30;99.90
25951;DHT22;13748;52.240;6.002;2023-08-07T01:34:03;14.30;99.90
25951;DHT22;13748;52.240;6.002;2023-08-07T01:36:31;14.30;99.90
25951;DHT22;13748;52.240;6.002;2023-08-07T01:39:00;14.30;99.90
25951;DHT22;13748;52.240;6.002;2023-08-07T01:41:28;14.20;99.90
25951;DHT22;13748;52.240;6.002;2023-08-07T01:43:55;14.20;99.90
25951;DHT22;13748;52.240;6.002;2023-08-07T01:46:22;14.10;99.90
25951;DHT22;13748;52.240;6.002;2023-08-07T01:48:51;14.10;99.90
25951;DHT22;13748;52.240;6.002;2023-08-07T01:51:22;14.20;99.90
25951;DHT22;13748;52.240;6.002;2023-08-07T01:53:52;14.20;99.90
25951;DHT22;13748;52.240;6.002;2023-08-07T01:56:19;14.10;99.90
25951;DHT22;13748;52.240;6.002;2023-08-07T01:58:54;14.20;99.90
25951;DHT22;13748;52.240;6.002;2023-08-07T02:04:48;14.10;99.90
25951;DHT22;13748;52.240;6.002;2023-08-07T02:07:31;14.20;99.90
25951;DHT22;13748;52.240;6.002;2023-08-07T02:10:07;14.30;99.90
25951;DHT22;13748;52.240;6.002;2023-08-07T02:12:45;14.30;99.90
25951;DHT22;13748;52.240;6.002;2023-08-07T02:15:59;14.30;99.90
25951;DHT22;13748;52.240;6.002;2023-08-07T02:18:51;14.30;99.90
25951;DHT22;13748;52.240;6.002;2023-08-07T02:21:30;14.30;99.90
25951;DHT22;13748;52.240;6.002;2023-08-07T02:24:01;14.20;99.90
25951;DHT22;13748;52.240;6.002;2023-08-07T02:26:42;14.30;99.90
25951;DHT22;13748;52.240;6.002;2023-08-07T02:29:23;14.20;99.90
25951;DHT22;13748;52.240;6.002;2023-08-07T02:38:46;14.20;99.90
25951;DHT22;13748;52.240;6.002;2023-08-07T02:41:43;14.20;99.90
25951;DHT22;13748;52.240;6.002;2023-08-07T02:44:33;14.20;99.90
25951;DHT22;13748;52.240;6.002;2023-08-07T02:47:13;14.20;99.90
25951;DHT22;13748;52.240;6.002;2023-08-07T02:49:43;14.20;99.90
25951;DHT22;13748;52.240;6.002;2023-08-07T02:52:31;14.20;99.90
25951;DHT22;13748;52.240;6.002;2023-08-07T02:55:07;14.20;99.90
25951;DHT22;13748;52.240;6.002;2023-08-07T02:57:44;14.20;99.90
25951;DHT22;13748;52.240;6.002;2023-08-07T03:00:21;14.20;99.90
25951;DHT22;13748;52.240;6.002;2023-08-07T03:02:50;14.20;99.90
25951;DHT22;13748;52.240;6.002;2023-08-07T03:05:17;14.20;99.90
25951;DHT22;13748;52.240;6.002;2023-08-07T03:07:44;14.20;99.90
25951;DHT22;13748;52.240;6.002;2023-08-07T03:10:11;14.20;99.90
25951;DHT22;13748;52.240;6.002;2023-08-07T03:12:38;14.20;99.90
25951;DHT22;13748;52.240;6.002;2023-08-07T03:15:06;14.10;99.90
25951;DHT22;13748;52.240;6.002;2023-08-07T03:17:33;14.10;99.90
25951;DHT22;13748;52.240;6.002;2023-08-07T03:20:00;14.10;99.90
25951;DHT22;13748;52.240;6.002;2023-08-07T03:22:27;14.10;99.90
25951;DHT22;13748;52.240;6.002;2023-08-07T03:24:54;14.10;99.90
25951;DHT22;13748;52.240;6.002;2023-08-07T03:27:24;14.10;99.90
25951;DHT22;13748;52.240;6.002;2023-08-07T03:29:51;14.00;99.90
25951;DHT22;13748;52.240;6.002;2023-08-07T03:32:18;14.10;99.90
25951;DHT22;13748;52.240;6.002;2023-08-07T03:34:45;14.00;99.90
25951;DHT22;13748;52.240;6.002;2023-08-07T03:37:12;14.10;99.90
25951;DHT22;13748;52.240;6.002;2023-08-07T03:39:39;14.10;99.90
25951;DHT22;13748;52.240;6.002;2023-08-07T03:42:08;14.10;99.90
25951;DHT22;13748;52.240;6.002;2023-08-07T03:44:35;14.20;99.90
25951;DHT22;13748;52.240;6.002;2023-08-07T03:47:03;14.20;99.90
25951;DHT22;13748;52.240;6.002;2023-08-07T03:49:30;14.20;99.90
25951;DHT22;13748;52.240;6.002;2023-08-07T03:51:58;14.20;99.90
25951;DHT22;13748;52.240;6.002;2023-08-07T03:54:25;14.20;99.90
25951;DHT22;13748;52.240;6.002;2023-08-07T03:57:02;14.40;99.90
25951;DHT22;13748;52.240;6.002;2023-08-07T03:59:30;14.30;99.90
25951;DHT22;13748;52.240;6.002;2023-08-07T04:01:57;14.30;99.90
25951;DHT22;13748;52.240;6.002;2023-08-07T04:04:26;14.30;99.90
25951;DHT22;13748;52.240;6.002;2023-08-07T04:06:53;14.30;99.90
25951;DHT22;13748;52.240;6.002;2023-08-07T04:09:21;14.30;99.90
25951;DHT22;13748;52.240;6.002;2023-08-07T04:11:48;14.30;99.90
25951;DHT22;13748;52.240;6.002;2023-08-07T04:14:15;14.40;99.90
25951;DHT22;13748;52.240;6.002;2023-08-07T04:16:41;14.40;99.90
25951;DHT22;13748;52.240;6.002;2023-08-07T04:19:08;14.40;99.90
25951;DHT22;13748;52.240;6.002;2023-08-07T04:21:35;14.40;99.90
25951;DHT22;13748;52.240;6.002;2023-08-07T04:24:03;14.40;99.90
25951;DHT22;13748;52.240;6.002;2023-08-07T04:26:38;14.50;99.90
25951;DHT22;13748;52.240;6.002;2023-08-07T04:29:06;14.50;99.90
25951;DHT22;13748;52.240;6.002;2023-08-07T04:31:33;14.60;99.90
25951;DHT22;13748;52.240;6.002;2023-08-07T04:34:01;14.60;99.90
25951;DHT22;13748;52.240;6.002;2023-08-07T04:36:27;14.60;99.90
25951;DHT22;13748;52.240;6.002;2023-08-07T04:38:54;14.60;99.90
25951;DHT22;13748;52.240;6.002;2023-08-07T04:41:22;14.70;99.90
25951;DHT22;13748;52.240;6.002;2023-08-07T04:43:49;14.60;99.90
25951;DHT22;13748;52.240;6.002;2023-08-07T04:46:16;14.60;99.90
25951;DHT22;13748;52.240;6.002;2023-08-07T04:48:43;14.70;99.90
25951;DHT22;13748;52.240;6.002;2023-08-07T04:51:10;14.70;99.90
25951;DHT22;13748;52.240;6.002;2023-08-07T04:53:36;14.70;99.90
25951;DHT22;13748;52.240;6.002;2023-08-07T04:56:03;14.70;99.90
25951;DHT22;13748;52.240;6.002;2023-08-07T04:58:30;14.70;99.90
25951;DHT22;13748;52.240;6.002;2023-08-07T05:00:58;14.70;99.90
25951;DHT22;13748;52.240;6.002;2023-08-07T05:03:25;14.70;99.90
25951;DHT22;13748;52.240;6.002;2023-08-07T05:06:00;14.70;99.90
25951;DHT22;13748;52.240;6.002;2023-08-07T05:08:27;14.70;99.90
25951;DHT22;13748;52.240;6.002;2023-08-07T05:10:54;14.70;99.90
25951;DHT22;13748;52.240;6.002;2023-08-07T05:13:21;14.80;99.90
25951;DHT22;13748;52.240;6.002;2023-08-07T05:15:48;14.70;99.90
25951;DHT22;13748;52.240;6.002;2023-08-07T05:18:16;14.70;99.90
25951;DHT22;13748;52.240;6.002;2023-08-07T05:20:42;14.70;99.90
25951;DHT22;13748;52.240;6.002;2023-08-07T05:23:09;14.70;99.90
25951;DHT22;13748;52.240;6.002;2023-08-07T05:25:37;14.70;99.90
25951;DHT22;13748;52.240;6.002;2023-08-07T05:28:04;14.70;99.90
25951;DHT22;13748;52.240;6.002;2023-08-07T05:30:31;14.70;99.90
25951;DHT22;13748;52.240;6.002;2023-08-07T05:32:59;14.70;99.90
25951;DHT22;13748;52.240;6.002;2023-08-07T05:35:26;14.70;99.90
25951;DHT22;13748;52.240;6.002;2023-08-07T05:37:53;14.80;99.90
25951;DHT22;13748;52.240;6.002;2023-08-07T05:40:19;14.70;99.90
25951;DHT22;13748;52.240;6.002;2023-08-07T05:42:46;14.70;99.90
25951;DHT22;13748;52.240;6.002;2023-08-07T05:45:13;14.80;99.90
25951;DHT22;13748;52.240;6.002;2023-08-07T05:47:40;14.70;99.90
25951;DHT22;13748;52.240;6.002;2023-08-07T05:50:07;14.60;99.90
25951;DHT22;13748;52.240;6.002;2023-08-07T05:52:34;14.70;99.90
25951;DHT22;13748;52.240;6.002;2023-08-07T05:55:01;14.70;99.90
25951;DHT22;13748;52.240;6.002;2023-08-07T05:57:30;14.70;99.90
25951;DHT22;13748;52.240;6.002;2023-08-07T05:59:57;14.70;99.90
25951;DHT22;13748;52.240;6.002;2023-08-07T06:02:24;14.70;99.90
25951;DHT22;13748;52.240;6.002;2023-08-07T06:04:51;14.70;99.90
25951;DHT22;13748;52.240;6.002;2023-08-07T06:07:19;14.70;99.90
25951;DHT22;13748;52.240;6.002;2023-08-07T06:09:46;14.80;99.90
25951;DHT22;13748;52.240;6.002;2023-08-07T06:12:13;14.80;99.90
25951;DHT22;13748;52.240;6.002;2023-08-07T06:14:39;15.00;99.90
25951;DHT22;13748;52.240;6.002;2023-08-07T06:17:06;15.00;99.90
25951;DHT22;13748;52.240;6.002;2023-08-07T06:19:33;15.00;99.90
25951;DHT22;13748;52.240;6.002;2023-08-07T06:22:00;15.00;99.90
25951;DHT22;13748;52.240;6.002;2023-08-07T06:24:28;15.00;99.90
25951;DHT22;13748;52.240;6.002;2023-08-07T06:26:55;15.00;99.90
25951;DHT22;13748;52.240;6.002;2023-08-07T06:29:21;15.00;99.90
25951;DHT22;13748;52.240;6.002;2023-08-07T06:31:51;15.00;99.90
25951;DHT22;13748;52.240;6.002;2023-08-07T06:34:18;15.00;99.90
25951;DHT22;13748;52.240;6.002;2023-08-07T06:36:45;15.00;99.90
25951;DHT22;13748;52.240;6.002;2023-08-07T06:39:12;14.90;99.90
25951;DHT22;13748;52.240;6.002;2023-08-07T06:41:39;14.90;99.90
25951;DHT22;13748;52.240;6.002;2023-08-07T06:44:06;14.90;99.90
25951;DHT22;13748;52.240;6.002;2023-08-07T06:46:33;14.90;99.90
25951;DHT22;13748;52.240;6.002;2023-08-07T06:48:59;14.90;99.90
25951;DHT22;13748;52.240;6.002;2023-08-07T06:51:26;15.00;99.90
25951;DHT22;13748;52.240;6.002;2023-08-07T06:53:53;15.00;99.90
25951;DHT22;13748;52.240;6.002;2023-08-07T06:56:20;15.00;99.90
25951;DHT22;13748;52.240;6.002;2023-08-07T06:58:47;15.10;99.90
25951;DHT22;13748;52.240;6.002;2023-08-07T07:01:14;15.20;99.90
25951;DHT22;13748;52.240;6.002;2023-08-07T07:03:41;15.20;99.90
25951;DHT22;13748;52.240;6.002;2023-08-07T07:06:08;15.40;99.90
25951;DHT22;13748;52.240;6.002;2023-08-07T07:08:35;15.50;99.90
25951;DHT22;13748;52.240;6.002;2023-08-07T07:11:02;15.50;99.90
25951;DHT22;13748;52.240;6.002;2023-08-07T07:13:30;15.50;99.90
25951;DHT22;13748;52.240;6.002;2023-08-07T07:15:57;15.60;99.90
25951;DHT22;13748;52.240;6.002;2023-08-07T07:18:24;15.70;99.90
25951;DHT22;13748;52.240;6.002;2023-08-07T07:20:57;15.70;99.90
25951;DHT22;13748;52.240;6.002;2023-08-07T07:23:25;15.70;99.90
25951;DHT22;13748;52.240;6.002;2023-08-07T07:25:52;15.70;99.90
25951;DHT22;13748;52.240;6.002;2023-08-07T07:28:19;15.80;99.90
25951;DHT22;13748;52.240;6.002;2023-08-07T07:30:45;15.90;99.90
25951;DHT22;13748;52.240;6.002;2023-08-07T07:33:12;16.20;99.90
25951;DHT22;13748;52.240;6.002;2023-08-07T07:35:40;16.00;99.90
25951;DHT22;13748;52.240;6.002;2023-08-07T07:38:07;16.30;99.90
25951;DHT22;13748;52.240;6.002;2023-08-07T07:40:34;16.30;99.90
25951;DHT22;13748;52.240;6.002;2023-08-07T07:43:01;16.50;99.90
25951;DHT22;13748;52.240;6.002;2023-08-07T07:45:28;16.50;99.90
25951;DHT22;13748;52.240;6.002;2023-08-07T07:47:56;16.60;99.90
25951;DHT22;13748;52.240;6.002;2023-08-07T07:50:22;16.60;99.90
25951;DHT22;13748;52.240;6.002;2023-08-07T07:52:49;17.80;99.90
25951;DHT22;13748;52.240;6.002;2023-08-07T07:55:16;17.40;99.90
25951;DHT22;13748;52.240;6.002;2023-08-07T07:57:43;17.80;99.90
25951;DHT22;13748;52.240;6.002;2023-08-07T08:00:11;18.10;99.90
25951;DHT22;13748;52.240;6.002;2023-08-07T08:02:40;18.40;99.90
25951;DHT22;13748;52.240;6.002;2023-08-07T08:05:10;18.70;99.90
25951;DHT22;13748;52.240;6.002;2023-08-07T08:07:42;19.20;99.90
25951;DHT22;13748;52.240;6.002;2023-08-07T08:10:09;19.40;99.90
25951;DHT22;13748;52.240;6.002;2023-08-07T08:12:36;19.80;99.90
25951;DHT22;13748;52.240;6.002;2023-08-07T08:15:03;21.10;99.90
25951;DHT22;13748;52.240;6.002;2023-08-07T08:17:31;20.50;99.90
25951;DHT22;13748;52.240;6.002;2023-08-07T08:19:58;20.80;99.90
25951;DHT22;13748;52.240;6.002;2023-08-07T08:22:25;21.10;99.90
25951;DHT22;13748;52.240;6.002;2023-08-07T08:24:52;21.20;99.90
25951;DHT22;13748;52.240;6.002;2023-08-07T08:27:19;21.00;99.90
25951;DHT22;13748;52.240;6.002;2023-08-07T08:29:46;20.90;99.90
25951;DHT22;13748;52.240;6.002;2023-08-07T08:32:13;20.80;99.90
25951;DHT22;13748;52.240;6.002;2023-08-07T08:34:40;20.90;99.90
25951;DHT22;13748;52.240;6.002;2023-08-07T08:37:07;21.10;99.90
25951;DHT22;13748;52.240;6.002;2023-08-07T08:39:34;21.30;99.90
25951;DHT22;13748;52.240;6.002;2023-08-07T08:42:02;21.60;99.90
25951;DHT22;13748;52.240;6.002;2023-08-07T08:44:29;21.50;99.90
25951;DHT22;13748;52.240;6.002;2023-08-07T08:47:00;21.50;99.90
25951;DHT22;13748;52.240;6.002;2023-08-07T08:49:37;21.70;99.90
25951;DHT22;13748;52.240;6.002;2023-08-07T08:52:08;21.70;99.90
25951;DHT22;13748;52.240;6.002;2023-08-07T08:54:36;21.80;99.90
25951;DHT22;13748;52.240;6.002;2023-08-07T08:57:03;21.80;99.90
25951;DHT22;13748;52.240;6.002;2023-08-07T08:59:30;21.70;99.90
25951;DHT22;13748;52.240;6.002;2023-08-07T09:01:57;21.70;99.90
25951;DHT22;13748;52.240;6.002;2023-08-07T09:04:24;21.80;99.90
25951;DHT22;13748;52.240;6.002;2023-08-07T09:06:54;21.80;99.90
25951;DHT22;13748;52.240;6.002;2023-08-07T09:09:22;21.60;99.90
25951;DHT22;13748;52.240;6.002;2023-08-07T09:11:50;21.20;99.90
25951;DHT22;13748;52.240;6.002;2023-08-07T09:14:24;20.80;99.90
25951;DHT22;13748;52.240;6.002;2023-08-07T09:16:51;20.20;99.90
25951;DHT22;13748;52.240;6.002;2023-08-07T09:19:18;19.70;99.90
25951;DHT22;13748;52.240;6.002;2023-08-07T09:21:45;19.50;99.90
25951;DHT22;13748;52.240;6.002;2023-08-07T09:24:12;19.00;99.90
25951;DHT22;13748;52.240;6.002;2023-08-07T09:26:41;18.80;99.90
25951;DHT22;13748;52.240;6.002;2023-08-07T09:29:10;18.70;99.90
25951;DHT22;13748;52.240;6.002;2023-08-07T09:31:37;19.00;99.90
25951;DHT22;13748;52.240;6.002;2023-08-07T09:34:04;19.40;99.90
25951;DHT22;13748;52.240;6.002;2023-08-07T09:36:33;20.00;99.90
25951;DHT22;13748;52.240;6.002;2023-08-07T09:39:03;20.20;99.90
25951;DHT22;13748;52.240;6.002;2023-08-07T09:41:31;20.50;99.90
25951;DHT22;13748;52.240;6.002;2023-08-07T09:43:58;20.60;99.90
25951;DHT22;13748;52.240;6.002;2023-08-07T09:46:25;20.80;99.90
25951;DHT22;13748;52.240;6.002;2023-08-07T09:48:57;20.80;99.90
25951;DHT22;13748;52.240;6.002;2023-08-07T09:51:25;20.70;99.90
25951;DHT22;13748;52.240;6.002;2023-08-07T09:53:52;20.60;99.90
25951;DHT22;13748;52.240;6.002;2023-08-07T09:56:19;20.60;99.90
25951;DHT22;13748;52.240;6.002;2023-08-07T09:58:49;20.70;99.90
25951;DHT22;13748;52.240;6.002;2023-08-07T10:01:16;20.90;99.90
25951;DHT22;13748;52.240;6.002;2023-08-07T10:03:44;20.70;99.90
25951;DHT22;13748;52.240;6.002;2023-08-07T10:06:12;20.30;99.90
25951;DHT22;13748;52.240;6.002;2023-08-07T10:08:39;20.20;99.90
25951;DHT22;13748;52.240;6.002;2023-08-07T10:11:08;19.90;99.90
25951;DHT22;13748;52.240;6.002;2023-08-07T10:13:37;19.90;99.90
25951;DHT22;13748;52.240;6.002;2023-08-07T10:16:06;20.00;99.90
25951;DHT22;13748;52.240;6.002;2023-08-07T10:18:34;19.90;99.90
25951;DHT22;13748;52.240;6.002;2023-08-07T10:21:03;19.80;99.90
25951;DHT22;13748;52.240;6.002;2023-08-07T10:23:33;19.90;99.90
25951;DHT22;13748;52.240;6.002;2023-08-07T10:26:05;19.90;99.90
25951;DHT22;13748;52.240;6.002;2023-08-07T10:28:37;20.20;99.90
25951;DHT22;13748;52.240;6.002;2023-08-07T10:31:09;20.50;99.90
25951;DHT22;13748;52.240;6.002;2023-08-07T10:33:37;20.90;99.90
25951;DHT22;13748;52.240;6.002;2023-08-07T10:36:08;21.00;99.90
25951;DHT22;13748;52.240;6.002;2023-08-07T10:38:37;21.00;99.90
25951;DHT22;13748;52.240;6.002;2023-08-07T10:41:07;20.90;99.90
25951;DHT22;13748;52.240;6.002;2023-08-07T10:43:39;20.90;99.90
25951;DHT22;13748;52.240;6.002;2023-08-07T10:46:10;20.90;99.90
25951;DHT22;13748;52.240;6.002;2023-08-07T10:48:44;20.90;99.90
25951;DHT22;13748;52.240;6.002;2023-08-07T10:51:16;20.80;99.90
25951;DHT22;13748;52.240;6.002;2023-08-07T10:53:48;20.90;99.90
25951;DHT22;13748;52.240;6.002;2023-08-07T10:58:42;21.20;99.90
25951;DHT22;13748;52.240;6.002;2023-08-07T11:03:57;21.60;99.90
25951;DHT22;13748;52.240;6.002;2023-08-07T11:06:26;21.80;99.90
25951;DHT22;13748;52.240;6.002;2023-08-07T11:08:53;21.90;99.90
25951;DHT22;13748;52.240;6.002;2023-08-07T11:11:20;21.80;99.90
25951;DHT22;13748;52.240;6.002;2023-08-07T11:13:47;21.60;99.90
25951;DHT22;13748;52.240;6.002;2023-08-07T11:16:14;21.50;99.90
25951;DHT22;13748;52.240;6.002;2023-08-07T11:18:42;21.40;99.90
25951;DHT22;13748;52.240;6.002;2023-08-07T11:21:10;21.30;99.90
25951;DHT22;13748;52.240;6.002;2023-08-07T11:23:47;21.30;99.90
25951;DHT22;13748;52.240;6.002;2023-08-07T11:26:14;21.40;99.90
25951;DHT22;13748;52.240;6.002;2023-08-07T11:28:41;21.60;99.90
25951;DHT22;13748;52.240;6.002;2023-08-07T11:31:08;21.70;99.90
25951;DHT22;13748;52.240;6.002;2023-08-07T11:33:38;22.00;99.90
25951;DHT22;13748;52.240;6.002;2023-08-07T11:36:14;22.20;99.90
25951;DHT22;13748;52.240;6.002;2023-08-07T11:38:43;22.10;99.90
25951;DHT22;13748;52.240;6.002;2023-08-07T11:41:15;22.00;99.90
25951;DHT22;13748;52.240;6.002;2023-08-07T11:43:43;21.90;99.90
25951;DHT22;13748;52.240;6.002;2023-08-07T11:46:12;21.90;99.90
25951;DHT22;13748;52.240;6.002;2023-08-07T11:48:40;21.70;99.90
25951;DHT22;13748;52.240;6.002;2023-08-07T11:51:08;21.60;99.90
25951;DHT22;13748;52.240;6.002;2023-08-07T11:53:38;21.40;99.90
25951;DHT22;13748;52.240;6.002;2023-08-07T11:56:10;21.20;99.90
25951;DHT22;13748;52.240;6.002;2023-08-07T11:58:40;21.20;99.90
25951;DHT22;13748;52.240;6.002;2023-08-07T12:01:24;21.20;99.90
25951;DHT22;13748;52.240;6.002;2023-08-07T12:04:09;21.40;99.90
25951;DHT22;13748;52.240;6.002;2023-08-07T12:06:37;21.40;99.90
25951;DHT22;13748;52.240;6.002;2023-08-07T12:09:07;21.40;99.90
25951;DHT22;13748;52.240;6.002;2023-08-07T12:11:39;21.40;99.90
25951;DHT22;13748;52.240;6.002;2023-08-07T12:14:06;21.40;99.90
25951;DHT22;13748;52.240;6.002;2023-08-07T12:16:35;21.50;99.90
25951;DHT22;13748;52.240;6.002;2023-08-07T12:19:02;21.70;99.90
25951;DHT22;13748;52.240;6.002;2023-08-07T12:21:30;21.90;99.90
25951;DHT22;13748;52.240;6.002;2023-08-07T12:24:00;21.80;99.90
25951;DHT22;13748;52.240;6.002;2023-08-07T12:26:27;21.60;99.90
25951;DHT22;13748;52.240;6.002;2023-08-07T12:28:54;21.60;99.90
25951;DHT22;13748;52.240;6.002;2023-08-07T12:31:21;21.50;99.90
25951;DHT22;13748;52.240;6.002;2023-08-07T12:33:48;21.80;99.90
25951;DHT22;13748;52.240;6.002;2023-08-07T12:36:16;21.90;99.90
25951;DHT22;13748;52.240;6.002;2023-08-07T12:38:46;22.00;99.90
25951;DHT22;13748;52.240;6.002;2023-08-07T12:41:14;22.10;99.90
25951;DHT22;13748;52.240;6.002;2023-08-07T12:43:43;22.20;99.90
25951;DHT22;13748;52.240;6.002;2023-08-07T12:46:10;22.20;99.90
25951;DHT22;13748;52.240;6.002;2023-08-07T12:48:40;22.10;99.90
25951;DHT22;13748;52.240;6.002;2023-08-07T12:51:07;22.20;99.90
25951;DHT22;13748;52.240;6.002;2023-08-07T12:53:34;22.20;99.90
25951;DHT22;13748;52.240;6.002;2023-08-07T12:56:01;22.40;99.90
25951;DHT22;13748;52.240;6.002;2023-08-07T12:58:29;22.50;99.90
25951;DHT22;13748;52.240;6.002;2023-08-07T13:00:56;22.50;99.90
25951;DHT22;13748;52.240;6.002;2023-08-07T13:03:23;22.40;99.90
25951;DHT22;13748;52.240;6.002;2023-08-07T13:05:51;22.20;99.90
25951;DHT22;13748;52.240;6.002;2023-08-07T13:08:17;21.90;99.90
25951;DHT22;13748;52.240;6.002;2023-08-07T13:10:44;21.80;99.90
25951;DHT22;13748;52.240;6.002;2023-08-07T13:13:15;21.50;99.90
25951;DHT22;13748;52.240;6.002;2023-08-07T13:15:42;21.40;99.90
25951;DHT22;13748;52.240;6.002;2023-08-07T13:18:09;21.40;99.90
25951;DHT22;13748;52.240;6.002;2023-08-07T13:20:37;21.40;99.90
25951;DHT22;13748;52.240;6.002;2023-08-07T13:23:04;21.40;99.90
25951;DHT22;13748;52.240;6.002;2023-08-07T13:25:32;21.30;99.90
25951;DHT22;13748;52.240;6.002;2023-08-07T13:27:59;21.10;99.90
25951;DHT22;13748;52.240;6.002;2023-08-07T13:30:26;21.10;99.90
25951;DHT22;13748;52.240;6.002;2023-08-07T13:33:01;21.20;99.90
25951;DHT22;13748;52.240;6.002;2023-08-07T13:35:28;21.30;99.90
25951;DHT22;13748;52.240;6.002;2023-08-07T13:37:56;21.50;99.90
25951;DHT22;13748;52.240;6.002;2023-08-07T13:40:22;21.50;99.90
25951;DHT22;13748;52.240;6.002;2023-08-07T13:42:49;21.60;99.90
25951;DHT22;13748;52.240;6.002;2023-08-07T13:45:16;21.60;99.90
25951;DHT22;13748;52.240;6.002;2023-08-07T13:47:43;21.70;99.90
25951;DHT22;13748;52.240;6.002;2023-08-07T13:50:10;21.70;99.90
25951;DHT22;13748;52.240;6.002;2023-08-07T13:52:40;21.50;99.90
25951;DHT22;13748;52.240;6.002;2023-08-07T13:55:07;21.30;99.90
25951;DHT22;13748;52.240;6.002;2023-08-07T13:57:36;21.30;99.90
25951;DHT22;13748;52.240;6.002;2023-08-07T14:00:03;21.30;99.90
25951;DHT22;13748;52.240;6.002;2023-08-07T14:02:30;21.20;99.90
25951;DHT22;13748;52.240;6.002;2023-08-07T14:04:59;21.30;99.90
25951;DHT22;13748;52.240;6.002;2023-08-07T14:07:26;21.40;99.90
25951;DHT22;13748;52.240;6.002;2023-08-07T14:09:53;21.40;99.90
25951;DHT22;13748;52.240;6.002;2023-08-07T14:12:20;21.30;99.90
25951;DHT22;13748;52.240;6.002;2023-08-07T14:14:47;21.10;99.90
25951;DHT22;13748;52.240;6.002;2023-08-07T14:17:13;21.00;99.90
25951;DHT22;13748;52.240;6.002;2023-08-07T14:19:40;21.10;99.90
25951;DHT22;13748;52.240;6.002;2023-08-07T14:22:07;21.20;99.90
25951;DHT22;13748;52.240;6.002;2023-08-07T14:24:34;21.00;99.90
25951;DHT22;13748;52.240;6.002;2023-08-07T14:27:01;21.00;99.90
25951;DHT22;13748;52.240;6.002;2023-08-07T14:29:27;20.90;99.90
25951;DHT22;13748;52.240;6.002;2023-08-07T14:31:54;20.90;99.90
25951;DHT22;13748;52.240;6.002;2023-08-07T14:34:21;20.80;99.90
25951;DHT22;13748;52.240;6.002;2023-08-07T14:36:48;20.90;99.90
25951;DHT22;13748;52.240;6.002;2023-08-07T14:39:15;20.80;99.90
25951;DHT22;13748;52.240;6.002;2023-08-07T14:41:42;20.90;99.90
25951;DHT22;13748;52.240;6.002;2023-08-07T14:44:09;20.80;99.90
25951;DHT22;13748;52.240;6.002;2023-08-07T14:46:36;20.50;99.90
25951;DHT22;13748;52.240;6.002;2023-08-07T14:49:03;20.50;99.90
25951;DHT22;13748;52.240;6.002;2023-08-07T14:51:29;20.50;99.90
25951;DHT22;13748;52.240;6.002;2023-08-07T14:53:57;20.50;99.90
25951;DHT22;13748;52.240;6.002;2023-08-07T14:56:24;20.50;99.90
25951;DHT22;13748;52.240;6.002;2023-08-07T14:58:51;20.50;99.90
25951;DHT22;13748;52.240;6.002;2023-08-07T15:01:17;20.50;99.90
25951;DHT22;13748;52.240;6.002;2023-08-07T15:03:45;20.40;99.90
25951;DHT22;13748;52.240;6.002;2023-08-07T15:06:12;20.30;99.90
25951;DHT22;13748;52.240;6.002;2023-08-07T15:08:39;20.30;99.90
25951;DHT22;13748;52.240;6.002;2023-08-07T15:11:05;20.30;99.90
25951;DHT22;13748;52.240;6.002;2023-08-07T15:13:32;20.30;99.90
25951;DHT22;13748;52.240;6.002;2023-08-07T15:15:59;20.10;99.90
25951;DHT22;13748;52.240;6.002;2023-08-07T15:18:26;20.00;99.90
25951;DHT22;13748;52.240;6.002;2023-08-07T15:20:53;19.90;99.90
25951;DHT22;13748;52.240;6.002;2023-08-07T15:23:20;19.80;99.90
25951;DHT22;13748;52.240;6.002;2023-08-07T15:25:47;19.90;99.90
25951;DHT22;13748;52.240;6.002;2023-08-07T15:28:15;19.90;99.90
25951;DHT22;13748;52.240;6.002;2023-08-07T15:30:48;19.80;99.90
25951;DHT22;13748;52.240;6.002;2023-08-07T15:33:16;19.90;99.90
25951;DHT22;13748;52.240;6.002;2023-08-07T15:35:43;19.90;99.90
25951;DHT22;13748;52.240;6.002;2023-08-07T15:38:10;20.00;99.90
25951;DHT22;13748;52.240;6.002;2023-08-07T15:40:41;20.00;99.90
25951;DHT22;13748;52.240;6.002;2023-08-07T15:43:08;20.20;99.90
25951;DHT22;13748;52.240;6.002;2023-08-07T15:45:39;20.30;99.90
25951;DHT22;13748;52.240;6.002;2023-08-07T15:48:06;20.30;99.90
25951;DHT22;13748;52.240;6.002;2023-08-07T15:50:34;20.30;99.90
25951;DHT22;13748;52.240;6.002;2023-08-07T15:53:03;20.30;99.90
25951;DHT22;13748;52.240;6.002;2023-08-07T15:55:30;20.20;99.90
25951;DHT22;13748;52.240;6.002;2023-08-07T15:57:58;20.20;99.90
25951;DHT22;13748;52.240;6.002;2023-08-07T16:00:26;19.90;99.90